Airfield :
LOGIN :

Register | Disclaimer

   EN    FR    IT 

 










Legend :    VFR   Marginal VFR   IFR   Intensive IFR   Very Intensive IFR
Visi :
Ceiling :
>= 8 km
>= 3000ft
5 to 8 km
1000 to 3000 ft
1500m to 5 km
500 to 1000 ft
800 to 1500m
200 to 500 ft
< 800m
< 200 ft
Symbols :   Thunderstorms  Fog  Heavy snow  Heavy precipitations  Wind > 20 kt
SIGMETs :     Misc.  Thunderstorms  Icing  Turbulence  Mountain Waves  Volcanic Ashes







- Airport Elevation : 74 ft
- IATA code : EIN


EHEH - Eindhoven

CURRENT METAR :
  • 191325Z AUTO 03003KT 330V080 9999 NCD 17/09 Q1024 BLU 05005KT 9999 FEW030 SCT250

EXPIRED METARs :
  • 191255Z AUTO 07003KT 330V140 9999 NCD 16/09 Q1024 BLU 05005KT 9999 FEW030 SCT250
  • 191225Z AUTO VRB05KT 9999 NCD 16/09 Q1024 BLU 05005KT 9999 FEW030 SCT250
  • 191155Z AUTO VRB03KT 9999 OVC230/// 16/09 Q1025 BLU 05005KT 9999 FEW030 SCT250
  • 191125Z AUTO VRB03KT 9999 NCD 15/09 Q1025 BLU 07006KT CAVOK
  • 191055Z AUTO 09004KT 030V150 9999 FEW043 OVC330 14/09 Q1025 BLU 07006KT CAVOK

TAF TAF EHEH
Valid from the 19 at 12:00 until the 20 at 18:00 UTC


191131Z 1912/2018 06003KT 9999 FEW040 SCT250
PROB40
TEMPO 2000/2007 VRB02KT 0800 BCFG
No reported NOTAMs for that airfield.



MET'MAP, your aeronautical weather chart ! - Copyright ORBIFLY December 2007 - Disclaimer

ORBIFLY MET'MAP TEAM :

Programming & Development : Alexandra Zaïnal
Concept & Development : Baudouin d'Aumeries
Co-Development & Prog : Marc-Olivier Méhu
Technical & hardware support : Manuel Goepfert

Contact : metmap@orbifly.com




SOURCES & CREDITS :

   NOAA